createdAt,value
2023-02-12T00:01:00.535Z,19.74
2023-02-12T00:03:32.641Z,19.87
2023-02-12T00:06:03.258Z,19.73
2023-02-12T00:08:33.777Z,19.67
2023-02-12T00:11:13.756Z,19.51
2023-02-12T00:13:45.145Z,19.35
2023-02-12T00:16:18.621Z,19.09
2023-02-12T00:18:51.062Z,19.16
2023-02-12T00:21:22.349Z,19.13
2023-02-12T00:23:52.820Z,18.53
2023-02-12T00:26:24.476Z,18.51
2023-02-12T00:28:55.855Z,18.76
2023-02-12T00:31:28.946Z,18.48
2023-02-12T00:34:00.609Z,18.26
2023-02-12T00:36:33.292Z,18.62
2023-02-12T00:39:05.868Z,19.13
2023-02-12T00:41:36.302Z,19.04
2023-02-12T00:44:06.881Z,18.49
2023-02-12T00:46:38.529Z,17.86
2023-02-12T00:49:09.066Z,18.21
2023-02-12T00:51:39.538Z,18.41
2023-02-12T00:54:10.006Z,18.23
2023-02-12T00:56:40.498Z,18.95
2023-02-12T00:59:10.970Z,19.17
2023-02-12T01:01:41.563Z,19.12
2023-02-12T01:04:13.180Z,18.93
2023-02-12T01:06:43.619Z,18.44
2023-02-12T01:09:14.353Z,18.45
2023-02-12T01:11:44.816Z,17.59
2023-02-12T01:14:15.289Z,17.91
2023-02-12T01:16:45.755Z,18.06
2023-02-12T01:19:16.244Z,18.01
2023-02-12T01:21:47.900Z,18.26
2023-02-12T01:24:19.610Z,18.43
2023-02-12T01:26:50.100Z,18.10
2023-02-12T01:29:21.709Z,18.38
2023-02-12T01:31:52.335Z,17.56
2023-02-12T01:34:22.933Z,18.10
2023-02-12T01:36:53.390Z,17.90
2023-02-12T01:39:25.064Z,17.65
2023-02-12T01:41:55.526Z,18.18
2023-02-12T01:44:29.238Z,18.33
2023-02-12T01:47:01.838Z,17.38
2023-02-12T01:49:41.458Z,17.25
2023-02-12T01:52:20.927Z,17.47
2023-02-12T01:54:56.175Z,17.33
2023-02-12T01:57:28.121Z,17.91
2023-02-12T02:00:01.301Z,17.63
2023-02-12T02:02:33.685Z,17.89
2023-02-12T02:05:05.453Z,18.27
2023-02-12T02:07:36.125Z,18.25
2023-02-12T02:10:08.950Z,18.33
2023-02-12T02:12:58.534Z,18.00
2023-02-12T02:15:32.172Z,17.57
2023-02-12T02:18:16.914Z,17.30
2023-02-12T02:21:25.425Z,17.58
2023-02-12T02:24:16.157Z,17.49
2023-02-12T02:27:10.720Z,17.87
2023-02-12T02:30:06.750Z,17.71
2023-02-12T02:32:58.064Z,17.24
2023-02-12T02:35:37.534Z,17.01
2023-02-12T02:38:13.936Z,16.71
2023-02-12T02:41:05.541Z,16.96
2023-02-12T02:43:41.891Z,16.99
2023-02-12T02:46:19.328Z,17.39
2023-02-12T02:48:56.107Z,17.28
2023-02-12T02:51:32.253Z,16.96
2023-02-12T02:54:14.632Z,17.15
2023-02-12T02:56:48.025Z,17.42
2023-02-12T02:59:24.183Z,17.01
2023-02-12T03:01:57.581Z,17.22
2023-02-12T03:04:32.646Z,17.42
2023-02-12T03:07:06.013Z,16.73
2023-02-12T03:09:54.761Z,17.01
2023-02-12T03:12:46.425Z,16.73
2023-02-12T03:15:22.869Z,17.08
2023-02-12T03:17:54.720Z,17.06
2023-02-12T03:20:31.689Z,16.94
2023-02-12T03:23:05.108Z,17.16
2023-02-12T03:25:38.445Z,17.45
2023-02-12T03:28:11.996Z,17.48
2023-02-12T03:30:51.703Z,17.39
2023-02-12T03:33:43.622Z,17.59
2023-02-12T03:36:28.843Z,17.46
2023-02-12T03:39:03.333Z,17.26
2023-02-12T03:41:51.767Z,17.27
2023-02-12T03:44:32.162Z,17.77
2023-02-12T03:47:20.723Z,17.55
2023-02-12T03:49:59.728Z,17.45
2023-02-12T03:52:31.237Z,17.53
2023-02-12T03:55:01.938Z,17.59
2023-02-12T03:57:35.780Z,17.61
2023-02-12T04:00:10.635Z,17.25
2023-02-12T04:02:41.783Z,17.40
2023-02-12T04:05:21.005Z,17.09
2023-02-12T04:07:53.135Z,17.22
2023-02-12T04:10:32.384Z,17.24
2023-02-12T04:13:05.744Z,17.22
2023-02-12T04:15:42.021Z,17.15
2023-02-12T04:18:24.328Z,17.16
2023-02-12T04:20:57.768Z,17.21
2023-02-12T04:23:58.525Z,17.70
2023-02-12T04:26:48.579Z,17.37
2023-02-12T04:29:46.388Z,17.09
2023-02-12T04:32:31.441Z,17.30
2023-02-12T04:35:10.245Z,17.40
2023-02-12T04:37:43.670Z,17.29
2023-02-12T04:40:18.071Z,16.95
2023-02-12T04:42:51.340Z,16.92
2023-02-12T04:45:25.959Z,16.77
2023-02-12T04:47:57.043Z,17.10
2023-02-12T04:50:28.332Z,17.16
2023-02-12T04:52:58.788Z,17.21
2023-02-12T04:55:29.471Z,17.14
2023-02-12T04:58:00.017Z,16.92
2023-02-12T05:00:30.564Z,16.84
2023-02-12T05:03:01.439Z,16.98
2023-02-12T05:05:31.891Z,16.70
2023-02-12T05:08:03.643Z,16.69
2023-02-12T05:10:35.305Z,16.46
2023-02-12T05:13:05.738Z,16.75
2023-02-12T05:15:36.261Z,16.68
2023-02-12T05:18:07.026Z,16.78
2023-02-12T05:20:37.513Z,16.80
2023-02-12T05:23:07.996Z,16.77
2023-02-12T05:25:38.459Z,17.02
2023-02-12T05:28:09.013Z,16.65
2023-02-12T05:30:39.664Z,16.92
2023-02-12T05:33:10.150Z,16.84
2023-02-12T05:35:40.612Z,16.84
2023-02-12T05:38:12.395Z,17.51
2023-02-12T05:40:43.425Z,17.11
2023-02-12T05:43:14.395Z,16.80
2023-02-12T05:45:45.323Z,16.24
2023-02-12T05:48:17.095Z,16.43
2023-02-12T05:50:47.550Z,16.51
2023-02-12T05:53:18.021Z,16.57
2023-02-12T05:55:48.712Z,16.63
2023-02-12T05:58:20.285Z,16.61
2023-02-12T06:00:50.766Z,16.48
2023-02-12T06:03:21.238Z,16.63
2023-02-12T06:05:55.073Z,16.42
2023-02-12T06:08:26.942Z,16.75
2023-02-12T06:11:03.689Z,16.49
2023-02-12T06:13:35.196Z,16.12
2023-02-12T06:16:06.159Z,16.28
2023-02-12T06:18:38.117Z,16.55
2023-02-12T06:21:08.603Z,16.36
2023-02-12T06:23:39.061Z,16.56
2023-02-12T06:26:10.541Z,16.66
2023-02-12T06:28:41.086Z,16.73
2023-02-12T06:31:23.372Z,16.73
2023-02-12T06:33:54.973Z,16.72
2023-02-12T06:36:26.203Z,16.96
2023-02-12T06:38:56.736Z,16.56
2023-02-12T06:41:27.247Z,16.53
2023-02-12T06:43:57.722Z,16.44
2023-02-12T06:46:28.579Z,16.57
2023-02-12T06:49:01.465Z,16.48
2023-02-12T06:51:32.490Z,16.70
2023-02-12T06:54:02.940Z,16.65
2023-02-12T06:56:33.555Z,16.48
2023-02-12T06:59:04.127Z,16.41
2023-02-12T07:01:35.968Z,16.51
2023-02-12T07:04:08.043Z,16.43
2023-02-12T07:06:38.835Z,16.60
2023-02-12T07:09:09.419Z,16.61
2023-02-12T07:11:40.050Z,16.58
2023-02-12T07:14:14.725Z,16.58
2023-02-12T07:16:45.457Z,16.21
2023-02-12T07:19:17.047Z,16.42
2023-02-12T07:21:49.173Z,15.38
2023-02-12T07:24:20.963Z,15.52
2023-02-12T07:26:51.557Z,15.98
2023-02-12T07:29:22.128Z,15.97
2023-02-12T07:31:52.805Z,15.93
2023-02-12T07:34:23.395Z,15.97
2023-02-12T07:36:54.029Z,15.95
2023-02-12T07:39:31.492Z,15.47
2023-02-12T07:42:02.406Z,15.79
2023-02-12T07:44:34.505Z,16.16
2023-02-12T07:47:06.301Z,16.15
2023-02-12T07:49:38.088Z,17.01
2023-02-12T07:52:09.095Z,16.73
2023-02-12T07:54:40.643Z,16.64
2023-02-12T07:57:11.267Z,15.56
2023-02-12T07:59:41.881Z,16.11
2023-02-12T08:02:12.597Z,15.94
2023-02-12T08:04:52.246Z,16.26
2023-02-12T08:07:22.900Z,16.57
2023-02-12T08:09:53.969Z,17.28
2023-02-12T08:12:24.491Z,17.25
2023-02-12T08:17:35.670Z,15.18
2023-02-12T08:20:06.838Z,16.00
2023-02-12T08:22:37.358Z,15.00
2023-02-12T08:25:09.621Z,16.23
2023-02-12T08:27:42.739Z,15.24
2023-02-12T08:30:15.493Z,15.48
2023-02-12T08:32:46.315Z,15.35
2023-02-12T08:35:17.588Z,15.44
2023-02-12T08:37:48.207Z,15.59
2023-02-12T08:40:18.851Z,16.59
2023-02-12T08:42:49.416Z,16.33
2023-02-12T08:45:21.062Z,16.75
2023-02-12T08:47:51.632Z,15.85
2023-02-12T08:50:22.169Z,17.81
2023-02-12T08:52:52.693Z,16.11
2023-02-12T08:55:23.250Z,15.38
2023-02-12T08:57:55.327Z,17.38
2023-02-12T09:00:25.962Z,16.61
2023-02-12T09:02:56.419Z,16.14
2023-02-12T09:05:26.964Z,16.99
2023-02-12T09:07:57.418Z,16.86
2023-02-12T09:10:27.997Z,18.73
2023-02-12T09:12:58.527Z,17.39
2023-02-12T09:15:28.989Z,17.01
2023-02-12T09:18:01.134Z,19.28
2023-02-12T09:20:32.086Z,16.84
2023-02-12T09:23:02.652Z,16.97
2023-02-12T09:25:35.080Z,16.46
2023-02-12T09:28:06.052Z,17.34
2023-02-12T09:30:38.768Z,19.07
2023-02-12T09:33:11.486Z,19.76
2023-02-12T09:35:42.280Z,19.68
2023-02-12T09:38:12.833Z,19.78
2023-02-12T09:41:07.858Z,17.37
2023-02-12T09:44:01.120Z,17.71
2023-02-12T09:46:40.315Z,18.27
2023-02-12T09:49:22.652Z,16.80
2023-02-12T09:51:55.021Z,18.79
2023-02-12T09:54:28.483Z,21.43
2023-02-12T09:57:01.596Z,19.83
2023-02-12T09:59:44.391Z,20.28
2023-02-12T10:02:17.191Z,20.28
2023-02-12T10:05:00.642Z,19.96
2023-02-12T10:07:36.960Z,19.99
2023-02-12T10:10:17.343Z,19.24
2023-02-12T10:13:09.190Z,19.21
2023-02-12T10:15:49.859Z,19.13
2023-02-12T10:18:39.978Z,15.91
2023-02-12T10:21:34.655Z,16.99
2023-02-12T10:24:29.415Z,18.28
2023-02-12T10:27:03.001Z,18.07
2023-02-12T10:29:36.897Z,17.64
2023-02-12T10:32:10.419Z,17.66
2023-02-12T10:34:42.930Z,18.23
2023-02-12T10:37:35.373Z,17.70
2023-02-12T10:40:11.766Z,17.25
2023-02-12T10:42:48.040Z,17.67
2023-02-12T10:45:21.781Z,18.55
2023-02-12T10:47:55.231Z,18.70
2023-02-12T10:50:44.018Z,17.38
2023-02-12T10:53:23.623Z,18.35
2023-02-12T10:55:57.332Z,18.17
2023-02-12T10:58:28.586Z,18.48
2023-02-12T11:01:02.186Z,17.84
2023-02-12T11:03:39.116Z,18.08
2023-02-12T11:06:28.038Z,17.67
2023-02-12T11:09:00.596Z,19.02
2023-02-12T11:11:33.680Z,16.67
2023-02-12T11:14:10.470Z,17.27
2023-02-12T11:16:44.083Z,16.25
2023-02-12T11:19:24.335Z,18.21
2023-02-12T11:22:07.621Z,17.80
2023-02-12T11:24:39.395Z,16.29
2023-02-12T11:27:29.069Z,18.96
2023-02-12T11:30:21.599Z,19.31
2023-02-12T11:32:53.544Z,18.92
2023-02-12T11:35:28.588Z,19.27
2023-02-12T11:38:02.747Z,19.18
2023-02-12T11:40:34.645Z,19.21
2023-02-12T11:43:10.921Z,17.99
2023-02-12T11:45:52.794Z,17.94
2023-02-12T11:48:29.417Z,18.59
2023-02-12T11:51:03.180Z,17.82
2023-02-12T11:53:40.671Z,18.02
2023-02-12T11:56:15.388Z,18.76
2023-02-12T11:58:48.777Z,18.44
2023-02-12T12:01:25.287Z,18.76
2023-02-12T12:04:17.780Z,19.04
2023-02-12T12:06:54.424Z,18.70
2023-02-12T12:09:52.450Z,18.92
2023-02-12T12:12:30.242Z,19.69
2023-02-12T12:15:41.282Z,18.89
2023-02-12T12:18:49.453Z,20.17
2023-02-12T12:21:41.756Z,19.70
2023-02-12T12:24:29.030Z,19.42
2023-02-12T12:27:03.589Z,18.33
2023-02-12T12:29:55.718Z,19.33
2023-02-12T12:32:29.340Z,19.03
2023-02-12T12:35:00.122Z,18.87
2023-02-12T12:37:40.606Z,18.03
2023-02-12T12:40:21.414Z,19.15
2023-02-12T12:43:11.322Z,19.78
2023-02-12T12:45:45.253Z,18.71
2023-02-12T12:48:40.044Z,19.35
2023-02-12T12:51:35.998Z,17.84
2023-02-12T12:54:24.808Z,19.79
2023-02-12T12:57:04.227Z,19.20
2023-02-12T12:59:49.503Z,19.39
2023-02-12T13:02:50.678Z,19.32
2023-02-12T13:05:55.349Z,18.82
2023-02-12T13:08:38.033Z,19.03
2023-02-12T13:11:11.767Z,19.15
2023-02-12T13:13:46.123Z,17.72
2023-02-12T13:16:22.407Z,18.74
2023-02-12T13:19:21.036Z,18.00
2023-02-12T13:22:00.473Z,19.49
2023-02-12T13:24:47.399Z,18.53
2023-02-12T13:27:23.614Z,18.48
2023-02-12T13:30:03.089Z,18.93
2023-02-12T13:32:37.658Z,18.67
2023-02-12T13:35:11.284Z,18.10
2023-02-12T13:37:50.842Z,19.26
2023-02-12T13:40:24.449Z,18.14
2023-02-12T13:43:01.205Z,19.64
2023-02-12T13:45:43.861Z,19.18
2023-02-12T13:48:23.463Z,18.85
2023-02-12T13:51:02.956Z,19.63
2023-02-12T13:53:42.435Z,19.92
2023-02-12T13:56:31.164Z,18.74
2023-02-12T13:59:02.973Z,19.97
2023-02-12T14:01:46.908Z,20.21
2023-02-12T14:04:36.223Z,20.44
2023-02-12T14:07:12.987Z,18.81
2023-02-12T14:09:55.912Z,19.44
2023-02-12T14:12:29.783Z,19.08
2023-02-12T14:15:12.778Z,19.68
2023-02-12T14:17:45.518Z,19.78
2023-02-12T14:20:32.355Z,19.90
2023-02-12T14:23:29.117Z,19.57
2023-02-12T14:26:06.534Z,19.98
2023-02-12T14:29:01.497Z,20.87
2023-02-12T14:31:38.033Z,20.23
2023-02-12T14:34:12.302Z,18.83
2023-02-12T14:36:46.579Z,19.68
2023-02-12T14:39:26.088Z,19.88
2023-02-12T14:42:02.510Z,18.48
2023-02-12T14:44:38.859Z,19.49
2023-02-12T14:47:32.982Z,19.42
2023-02-12T14:50:18.442Z,19.41
2023-02-12T14:52:52.733Z,19.49
2023-02-12T14:55:30.206Z,19.77
2023-02-12T14:58:03.782Z,19.57
2023-02-12T15:00:42.601Z,19.69
2023-02-12T15:03:19.956Z,19.58
2023-02-12T15:06:05.531Z,18.84
2023-02-12T15:08:48.310Z,19.83
2023-02-12T15:11:38.802Z,18.95
2023-02-12T15:14:27.324Z,19.28
2023-02-12T15:17:03.702Z,19.43
2023-02-12T15:19:43.612Z,20.08
2023-02-12T15:22:24.084Z,20.18
2023-02-12T15:24:55.695Z,19.40
2023-02-12T15:27:26.538Z,19.84
2023-02-12T15:29:57.208Z,18.67
2023-02-12T15:32:30.914Z,19.69
2023-02-12T15:35:07.992Z,18.50
2023-02-12T15:37:41.329Z,19.60
2023-02-12T15:40:15.305Z,19.57
2023-02-12T15:43:02.215Z,20.24
2023-02-12T15:45:35.619Z,19.72
2023-02-12T15:48:15.181Z,20.18
2023-02-12T15:51:13.045Z,19.91
2023-02-12T15:53:45.691Z,20.09
2023-02-12T15:56:19.644Z,20.12
2023-02-12T15:58:53.651Z,19.67
2023-02-12T16:01:29.691Z,20.11
2023-02-12T16:04:03.898Z,19.68
2023-02-12T16:06:38.164Z,19.29
2023-02-12T16:09:11.672Z,19.38
2023-02-12T16:11:48.712Z,19.94
2023-02-12T16:14:31.645Z,19.76
2023-02-12T16:17:03.776Z,20.49
2023-02-12T16:19:36.676Z,20.22
2023-02-12T16:24:32.306Z,20.58
2023-02-12T16:27:11.976Z,20.34
2023-02-12T16:29:48.009Z,19.76
2023-02-12T16:32:34.259Z,20.17
2023-02-12T16:35:13.949Z,19.54
2023-02-12T16:37:50.483Z,19.68
2023-02-12T16:40:26.589Z,20.16
2023-02-12T16:43:09.245Z,19.78
2023-02-12T16:45:42.316Z,19.68
2023-02-12T16:48:25.453Z,19.93
2023-02-12T16:50:59.536Z,20.36
2023-02-12T16:53:46.445Z,20.33
2023-02-12T16:56:21.246Z,20.04
2023-02-12T16:58:57.443Z,20.17
2023-02-12T17:01:30.808Z,20.06
2023-02-12T17:04:03.421Z,20.51
2023-02-12T17:06:34.752Z,20.11
2023-02-12T17:09:05.508Z,19.25
2023-02-12T17:11:36.289Z,19.90
2023-02-12T17:14:07.146Z,20.42
2023-02-12T17:16:37.861Z,19.69
2023-02-12T17:19:08.657Z,19.14
2023-02-12T17:21:41.856Z,19.02
2023-02-12T17:24:27.372Z,18.66
2023-02-12T17:26:58.105Z,19.48
2023-02-12T17:29:31.333Z,18.52
2023-02-12T17:32:03.253Z,19.95
2023-02-12T17:34:47.773Z,19.95
2023-02-12T17:37:07.357Z,19.45
2023-02-12T17:39:40.244Z,19.11
2023-02-12T17:42:11.774Z,20.12
2023-02-12T17:44:43.416Z,19.96
2023-02-12T17:47:14.007Z,19.12
2023-02-12T17:49:45.380Z,19.36
2023-02-12T17:52:16.406Z,19.72
2023-02-12T17:54:48.750Z,19.11
2023-02-12T17:57:20.239Z,19.99
2023-02-12T17:59:50.967Z,19.56
2023-02-12T18:02:21.963Z,18.96
2023-02-12T18:04:53.422Z,19.62
2023-02-12T18:07:25.242Z,18.61
2023-02-12T18:09:55.949Z,19.37
2023-02-12T18:12:26.575Z,20.14
2023-02-12T18:14:59.357Z,18.68
2023-02-12T18:17:31.843Z,19.18
2023-02-12T18:20:02.487Z,20.42
2023-02-12T18:22:35.184Z,20.18
2023-02-12T18:25:06.194Z,20.05
2023-02-12T18:27:39.029Z,19.20
2023-02-12T18:30:11.200Z,20.06
2023-02-12T18:32:41.955Z,19.15
2023-02-12T18:35:12.701Z,18.99
2023-02-12T18:37:45.134Z,18.73
2023-02-12T18:40:17.390Z,19.58
2023-02-12T18:42:47.935Z,18.76
2023-02-12T18:45:19.615Z,18.43
2023-02-12T18:47:51.806Z,19.16
2023-02-12T18:50:22.935Z,20.07
2023-02-12T18:52:53.620Z,19.56
2023-02-12T18:55:25.744Z,19.55
2023-02-12T18:57:56.316Z,18.59
2023-02-12T19:00:27.218Z,19.21
2023-02-12T19:02:58.156Z,19.75
2023-02-12T19:05:31.894Z,20.29
2023-02-12T19:08:02.528Z,20.02
2023-02-12T19:10:34.653Z,18.99
2023-02-12T19:13:06.102Z,18.98
2023-02-12T19:15:38.397Z,19.51
2023-02-12T19:18:10.127Z,19.69
2023-02-12T19:20:42.502Z,19.68
2023-02-12T19:23:14.646Z,19.19
2023-02-12T19:25:45.785Z,19.32
2023-02-12T19:28:16.461Z,18.45
2023-02-12T19:30:47.034Z,18.93
2023-02-12T19:33:17.686Z,19.56
2023-02-12T19:35:52.755Z,19.47
2023-02-12T19:38:23.442Z,19.68
2023-02-12T19:40:55.886Z,19.32
2023-02-12T19:43:26.904Z,20.11
2023-02-12T19:46:10.278Z,19.70
2023-02-12T19:48:41.164Z,19.73
2023-02-12T19:51:17.797Z,19.52
2023-02-12T19:53:49.811Z,19.31
2023-02-12T19:56:20.979Z,19.81
2023-02-12T19:58:51.689Z,19.66
2023-02-12T20:01:23.210Z,19.92
2023-02-12T20:03:54.712Z,19.85
2023-02-12T20:06:31.163Z,19.52
2023-02-12T20:09:04.255Z,19.94
2023-02-12T20:11:40.793Z,20.57
2023-02-12T20:14:14.578Z,18.80
2023-02-12T20:16:47.320Z,18.74
2023-02-12T20:19:24.270Z,19.58
2023-02-12T20:21:56.797Z,18.97
2023-02-12T20:24:30.071Z,20.39
2023-02-12T20:27:03.466Z,19.93
2023-02-12T20:29:35.224Z,19.44
2023-02-12T20:32:06.409Z,19.98
2023-02-12T20:34:50.235Z,19.74
2023-02-12T20:37:10.533Z,20.51
2023-02-12T20:39:42.667Z,19.63
2023-02-12T20:42:13.298Z,18.84
2023-02-12T20:44:45.163Z,19.71
2023-02-12T20:47:16.611Z,19.27
2023-02-12T20:49:48.486Z,20.03
2023-02-12T20:52:19.495Z,20.62
2023-02-12T20:54:51.181Z,20.39
2023-02-12T20:57:22.927Z,19.97
2023-02-12T20:59:53.992Z,20.08
2023-02-12T21:02:24.608Z,20.18
2023-02-12T21:04:56.457Z,20.51
2023-02-12T21:07:27.166Z,20.41
2023-02-12T21:09:58.057Z,20.29
2023-02-12T21:12:29.028Z,20.40
2023-02-12T21:14:59.674Z,20.33
2023-02-12T21:17:30.463Z,20.19
2023-02-12T21:20:01.133Z,19.88
2023-02-12T21:22:31.898Z,20.12
2023-02-12T21:25:04.372Z,20.74
2023-02-12T21:27:36.973Z,19.60
2023-02-12T21:30:09.837Z,19.39
2023-02-12T21:32:40.410Z,18.95
2023-02-12T21:35:11.352Z,19.73
2023-02-12T21:37:42.213Z,19.46
2023-02-12T21:40:13.334Z,20.42
2023-02-12T21:42:43.880Z,19.04
2023-02-12T21:45:14.448Z,19.50
2023-02-12T21:47:45.276Z,19.39
2023-02-12T21:50:16.139Z,19.10
2023-02-12T21:52:46.804Z,18.64
2023-02-12T21:55:17.520Z,19.82
2023-02-12T21:57:48.102Z,20.33
2023-02-12T22:00:19.448Z,19.14
2023-02-12T22:02:51.646Z,20.06
2023-02-12T22:05:24.885Z,20.41
2023-02-12T22:07:57.331Z,20.84
2023-02-12T22:10:29.427Z,20.49
2023-02-12T22:13:05.035Z,20.18
2023-02-12T22:15:38.531Z,20.75
2023-02-12T22:18:14.952Z,20.16
2023-02-12T22:20:46.030Z,20.72
2023-02-12T22:23:18.893Z,21.26
2023-02-12T22:25:51.870Z,20.20
2023-02-12T22:28:23.547Z,19.84
2023-02-12T22:30:57.554Z,20.21
2023-02-12T22:33:38.111Z,19.74
2023-02-12T22:36:12.845Z,19.89
2023-02-12T22:38:44.804Z,20.63
2023-02-12T22:41:20.495Z,21.28
2023-02-12T22:43:58.096Z,20.35
2023-02-12T22:46:30.819Z,20.54
2023-02-12T22:49:06.030Z,20.71
2023-02-12T22:51:38.192Z,20.68
2023-02-12T22:54:14.000Z,20.00
2023-02-12T22:56:49.568Z,20.18
2023-02-12T22:59:25.555Z,20.15
2023-02-12T23:01:59.878Z,20.41
2023-02-12T23:04:33.385Z,19.59
2023-02-12T23:07:05.323Z,19.65
2023-02-12T23:09:43.179Z,19.89
2023-02-12T23:12:16.660Z,19.97
2023-02-12T23:14:48.547Z,18.69
2023-02-12T23:17:21.323Z,19.83
2023-02-12T23:19:53.890Z,19.41
2023-02-12T23:22:26.838Z,19.67
2023-02-12T23:25:01.909Z,20.36
2023-02-12T23:27:34.335Z,19.98
2023-02-12T23:30:15.264Z,19.73
2023-02-12T23:32:48.688Z,19.71
2023-02-12T23:35:20.393Z,19.32
2023-02-12T23:37:56.451Z,19.93
2023-02-12T23:40:34.573Z,20.17
2023-02-12T23:43:07.126Z,19.96
2023-02-12T23:45:42.920Z,19.51
2023-02-12T23:48:15.946Z,20.78
2023-02-12T23:50:50.080Z,19.96
2023-02-12T23:53:24.183Z,19.70
2023-02-12T23:55:59.049Z,19.05
2023-02-12T23:58:33.925Z,19.71
